KMEV/MEV METAR and TAF weather

Enter ICAO airport designator
Station Type Date Time Source
KMEV METAR 2021/05/15 01:55 UTC NOAA

KMEV 150155Z AUTO 26012G20KT 10SM CLR 24/M03 A2988 RMK AO2


Station Type Date Time Source
KMEV Decoded METAR 2021/05/15 01:55 UTC NOAA

Station name not available
May 14, 2021 - 09:55 PM EDT / 2021.05.15 0155 UTC
Wind: from the W (260 degrees) at 14 MPH (12 KT) gusting to 23 MPH (20 KT):0
Visibility: 10 mile(s):0
Sky conditions: clear
Temperature: 75 F (24 C)
Dew Point: 26 F (-3 C)
Relative Humidity: 16%
Pressure (altimeter): 29.88 in. Hg (1011 hPa)
ob: KMEV 150155Z AUTO 26012G20KT 10SM CLR 24/M03 A2988 RMK AO2
cycle: 2

Station Type Date Time Source
KMEV TAF 2021/05/15 00:00 UTC NOAA

TAF KMEV 142359Z 1500/1524 24015G26KT P6SM FEW070 BKN220
FM150600 33008G14KT P6SM SCT080 BKN120
FM151200 26006KT P6SM FEW080 BKN120
FM151800 32010G18KT P6SM VCSH SCT070 BKN100

Example: see airport list